Aérodrome :
LOGIN :

S'inscrire | Disclaimer

   EN    FR    IT 

 










Légende :    VFR   VFR Marginal   IFR   IFR Intensif   IFR Très Intensif
Visi : 
Plafond : 
>= 8 km
>= 3000ft
5 à 8 km
1000 à 3000 ft
1500m à 5 km
500 à 1000 ft
800 à 1500m
200 à 500 ft
< 800m
< 200 ft
Symboles :   Orages  Brouillard  Fortes neiges  Fortes précipitations  Vent > 20 kt
SIGMETs :   Divers  Orages  Givrage  Turbulence  Onde Orograph.  Cendres Volcan.






- Altitude de l'aérodrome : 327 ft
- Code IATA : BHX


EGBB - Birmingham

DERNIER METAR :
  • 060520Z 20009KT 160V240 6000 -RA BKN005 10/10 Q1003

METARs EXPIRÉS :
  • 060450Z 20008KT 180V240 6000 -RA BKN005 OVC014 10/10 Q1004
  • 060420Z 20009KT 160V220 6000 -RA BKN009 OVC039 10/10 Q1004 RERA
  • 060350Z AUTO 20008KT 6000 OVC005/// 10/10 Q1005
  • 060320Z AUTO 20010KT 170V240 6000 SCT006/// BKN009/// OVC022/// 10/10 Q1005 REDZ
  • 060250Z AUTO 20009KT 170V230 9999 OVC016/// 10/09 Q1005

TAF TAF EGBB
Valide du 06 à 06h jusqu'au 07 à 06h UTC


060459Z 0606/0706 21012KT 9999 SCT020
TEMPO 0606/0611 7000 -RADZ BKN010
PROB30
TEMPO 0606/0608 4000 +SHRA BKN006
PROB40
TEMPO 0608/0610 4000 RADZ BKN006
TEMPO 0613/0618 25018G28KT 7000 SHRA
BECMG 0614/0617 27008KT
PROB30
TEMPO 0614/0617 4000 +SHRA
ATIS : +44 121 780 0910



MET'MAP, la Météo Aéronautique d'un coup d'oeil ! - Copyright ORBIFLY Décembre 2007 - Disclaimer

ORBIFLY MET'MAP TEAM :

Programmation & Développement : Alexandra Zaïnal
Sur une idée originale de : Baudouin d'Aumeries
Assistance à la programmation : Marc-Olivier Méhu
Soutien technique & logistique : Manuel Goepfert

Contact : metmap@orbifly.com




SOURCES & CREDITS :

   NOAA